createdAt,value
2022-12-08T00:01:48.393Z,24.13
2022-12-08T00:04:16.758Z,24.63
2022-12-08T00:07:03.303Z,21.17
2022-12-08T00:09:39.001Z,28.02
2022-12-08T00:12:10.308Z,26.98
2022-12-08T00:14:40.231Z,26.50
2022-12-08T00:17:10.379Z,24.88
2022-12-08T00:19:39.133Z,24.63
2022-12-08T00:22:08.252Z,21.48
2022-12-08T00:24:40.566Z,22.23
2022-12-08T00:27:09.704Z,24.52
2022-12-08T00:29:38.493Z,24.80
2022-12-08T00:32:07.689Z,27.52
2022-12-08T00:34:35.983Z,28.23
2022-12-08T00:37:04.208Z,28.35
2022-12-08T00:39:32.865Z,30.85
2022-12-08T00:42:14.494Z,31.45
2022-12-08T00:44:43.911Z,27.02
2022-12-08T00:47:12.625Z,34.38
2022-12-08T00:49:40.807Z,31.67
2022-12-08T00:52:09.011Z,34.03
2022-12-08T00:54:37.382Z,34.72
2022-12-08T00:57:07.048Z,33.90
2022-12-08T00:59:35.227Z,37.47
2022-12-08T01:02:03.887Z,44.75
2022-12-08T01:04:32.060Z,48.58
2022-12-08T01:07:00.308Z,45.05
2022-12-08T01:09:29.048Z,43.83
2022-12-08T01:11:57.475Z,48.72
2022-12-08T01:14:27.365Z,42.38
2022-12-08T01:16:55.759Z,42.85
2022-12-08T01:19:24.163Z,41.65
2022-12-08T01:21:52.376Z,55.67
2022-12-08T01:24:22.269Z,51.30
2022-12-08T01:26:51.913Z,46.38
2022-12-08T01:29:20.560Z,44.13
2022-12-08T01:31:50.231Z,50.28
2022-12-08T01:34:18.432Z,57.53
2022-12-08T01:36:47.994Z,50.53
2022-12-08T01:39:18.361Z,49.47
2022-12-08T01:41:47.884Z,45.28
2022-12-08T01:44:53.300Z,40.22
2022-12-08T01:47:26.154Z,40.40
2022-12-08T01:49:54.595Z,33.45
2022-12-08T01:52:27.378Z,40.47
2022-12-08T01:55:01.800Z,33.53
2022-12-08T01:57:32.862Z,26.92
2022-12-08T02:00:07.578Z,24.73
2022-12-08T02:02:51.281Z,27.30
2022-12-08T02:05:22.189Z,25.40
2022-12-08T02:07:51.342Z,27.08
2022-12-08T02:10:21.194Z,23.80
2022-12-08T02:12:50.718Z,24.83
2022-12-08T02:15:19.581Z,22.88
2022-12-08T02:18:10.933Z,23.63
2022-12-08T02:20:48.929Z,23.20
2022-12-08T02:23:29.327Z,23.00
2022-12-08T02:26:19.329Z,23.60
2022-12-08T02:29:24.013Z,24.50
2022-12-08T02:32:05.862Z,22.95
2022-12-08T02:34:41.871Z,22.38
2022-12-08T02:37:17.708Z,25.20
2022-12-08T02:39:55.133Z,26.15
2022-12-08T02:42:31.682Z,24.55
2022-12-08T02:45:07.613Z,22.23
2022-12-08T02:47:36.428Z,30.80
2022-12-08T02:50:07.324Z,26.08
2022-12-08T02:52:43.972Z,28.42
2022-12-08T02:55:32.481Z,29.33
2022-12-08T02:58:26.793Z,27.35
2022-12-08T03:01:21.510Z,24.80
2022-12-08T03:04:02.431Z,25.23
2022-12-08T03:06:36.628Z,30.23
2022-12-08T03:09:11.339Z,26.10
2022-12-08T03:11:44.894Z,28.08
2022-12-08T03:14:15.725Z,32.88
2022-12-08T03:16:48.250Z,28.95
2022-12-08T03:19:20.223Z,28.63
2022-12-08T03:21:52.947Z,28.30
2022-12-08T03:24:24.466Z,31.25
2022-12-08T03:26:58.101Z,29.30
2022-12-08T03:29:26.502Z,26.25
2022-12-08T03:31:59.022Z,26.23
2022-12-08T03:34:30.882Z,31.48
2022-12-08T03:37:02.523Z,30.50
2022-12-08T03:39:30.686Z,31.05
2022-12-08T03:41:58.921Z,35.25
2022-12-08T03:44:27.106Z,46.33
2022-12-08T03:46:55.280Z,62.10
2022-12-08T03:49:23.546Z,79.60
2022-12-08T03:51:52.482Z,75.40
2022-12-08T03:54:21.992Z,85.32
2022-12-08T03:56:50.378Z,79.88
2022-12-08T03:59:18.572Z,63.50
2022-12-08T04:01:46.826Z,62.00
2022-12-08T04:04:15.226Z,49.65
2022-12-08T04:06:43.667Z,48.35
2022-12-08T04:09:11.997Z,52.40
2022-12-08T04:11:41.573Z,44.67
2022-12-08T04:14:09.718Z,47.83
2022-12-08T04:16:38.005Z,42.60
2022-12-08T04:19:06.757Z,41.65
2022-12-08T04:21:35.123Z,40.45
2022-12-08T04:24:03.447Z,55.45
2022-12-08T04:26:31.665Z,44.25
2022-12-08T04:29:01.173Z,41.45
2022-12-08T04:31:29.386Z,44.75
2022-12-08T04:33:57.594Z,42.63
2022-12-08T04:36:25.762Z,39.72
2022-12-08T04:38:54.110Z,35.58
2022-12-08T04:41:22.505Z,35.67
2022-12-08T04:43:51.026Z,38.95
2022-12-08T04:46:20.611Z,44.40
2022-12-08T04:48:48.901Z,42.65
2022-12-08T04:51:18.672Z,40.97
2022-12-08T04:53:47.527Z,49.70
2022-12-08T04:56:18.772Z,39.88
2022-12-08T04:58:47.540Z,47.83
2022-12-08T05:01:16.264Z,49.97
2022-12-08T05:03:46.165Z,50.08
2022-12-08T05:06:15.709Z,47.50
2022-12-08T05:08:44.472Z,45.47
2022-12-08T05:11:14.687Z,47.80
2022-12-08T05:13:43.176Z,59.90
2022-12-08T05:16:14.531Z,67.45
2022-12-08T05:18:43.550Z,55.58
2022-12-08T05:21:13.111Z,45.58
2022-12-08T05:23:41.361Z,51.05
2022-12-08T05:26:09.824Z,41.75
2022-12-08T05:28:42.660Z,34.42
2022-12-08T05:31:12.223Z,43.60
2022-12-08T05:33:40.486Z,37.83
2022-12-08T05:36:09.221Z,41.58
2022-12-08T05:38:38.773Z,36.40
2022-12-08T05:41:07.865Z,41.58
2022-12-08T05:43:36.214Z,47.70
2022-12-08T05:46:04.607Z,43.53
2022-12-08T05:48:32.819Z,40.33
2022-12-08T05:51:01.195Z,49.45
2022-12-08T05:53:29.710Z,50.67
2022-12-08T05:55:59.253Z,53.17
2022-12-08T05:58:27.514Z,58.15
2022-12-08T06:00:55.736Z,43.38
2022-12-08T06:03:23.989Z,50.83
2022-12-08T06:05:52.174Z,41.53
2022-12-08T06:08:20.823Z,55.97
2022-12-08T06:10:49.220Z,49.60
2022-12-08T06:13:18.839Z,55.45
2022-12-08T06:15:47.061Z,53.80
2022-12-08T06:18:15.305Z,48.40
2022-12-08T06:20:43.570Z,44.90
2022-12-08T06:23:12.177Z,52.47
2022-12-08T06:25:40.418Z,53.03
2022-12-08T06:28:08.585Z,47.90
2022-12-08T06:30:39.063Z,48.78
2022-12-08T06:33:07.293Z,46.67
2022-12-08T06:35:35.526Z,45.72
2022-12-08T06:38:03.760Z,51.15
2022-12-08T06:40:32.041Z,58.92
2022-12-08T06:43:00.218Z,52.35
2022-12-08T06:45:28.359Z,53.78
2022-12-08T06:47:58.002Z,53.28
2022-12-08T06:50:26.148Z,35.70
2022-12-08T06:53:03.162Z,37.35
2022-12-08T06:58:21.873Z,43.47
2022-12-08T07:00:50.205Z,47.40
2022-12-08T07:03:19.809Z,38.15
2022-12-08T07:05:48.256Z,44.00
2022-12-08T07:08:16.570Z,35.72
2022-12-08T07:10:45.080Z,35.95
2022-12-08T07:13:13.323Z,40.90
2022-12-08T07:15:41.482Z,36.88
2022-12-08T07:18:09.722Z,39.60
2022-12-08T07:20:40.387Z,42.70
2022-12-08T07:23:08.562Z,43.10
2022-12-08T07:25:36.785Z,43.67
2022-12-08T07:28:09.747Z,41.05
2022-12-08T07:30:38.246Z,50.90
2022-12-08T07:33:06.763Z,48.22
2022-12-08T07:35:35.433Z,46.30
2022-12-08T07:38:05.170Z,46.78
2022-12-08T07:40:33.387Z,47.72
2022-12-08T07:43:01.540Z,41.40
2022-12-08T07:45:31.625Z,47.00
2022-12-08T07:48:00.410Z,52.55
2022-12-08T07:50:28.626Z,50.72
2022-12-08T07:52:56.898Z,52.97
2022-12-08T07:55:26.806Z,51.60
2022-12-08T07:57:55.096Z,53.13
2022-12-08T08:00:23.395Z,56.25
2022-12-08T08:02:51.963Z,48.58
2022-12-08T08:05:20.738Z,64.05
2022-12-08T08:07:48.958Z,58.05
2022-12-08T08:10:17.222Z,58.50
2022-12-08T08:12:47.657Z,44.78
2022-12-08T08:15:15.855Z,40.10
2022-12-08T08:17:44.028Z,39.72
2022-12-08T08:20:13.203Z,34.75
2022-12-08T08:22:41.453Z,25.42
2022-12-08T08:25:10.517Z,20.20
2022-12-08T08:27:38.868Z,18.50
2022-12-08T08:30:15.214Z,18.98
2022-12-08T08:32:46.519Z,19.80
2022-12-08T08:35:14.819Z,24.20
2022-12-08T08:37:48.357Z,23.38
2022-12-08T08:40:17.664Z,23.98
2022-12-08T08:42:46.101Z,28.65
2022-12-08T08:45:15.792Z,25.55
2022-12-08T08:47:44.005Z,25.38
2022-12-08T08:50:12.435Z,30.83
2022-12-08T08:52:40.643Z,27.50
2022-12-08T08:55:09.305Z,35.03
2022-12-08T08:57:37.528Z,33.55
2022-12-08T09:00:07.359Z,32.10
2022-12-08T09:02:37.267Z,39.22
2022-12-08T09:05:06.978Z,37.17
2022-12-08T09:07:35.278Z,39.20
2022-12-08T09:10:04.095Z,35.92
2022-12-08T09:12:32.621Z,25.45
2022-12-08T09:15:01.219Z,26.00
2022-12-08T09:17:29.366Z,25.30
2022-12-08T09:19:59.318Z,21.93
2022-12-08T09:22:27.707Z,25.48
2022-12-08T09:24:55.953Z,27.27
2022-12-08T09:27:24.234Z,31.50
2022-12-08T09:29:52.424Z,23.40
2022-12-08T09:32:20.702Z,25.05
2022-12-08T09:34:52.055Z,27.37
2022-12-08T09:37:22.190Z,36.27
2022-12-08T09:39:50.482Z,33.65
2022-12-08T09:42:31.059Z,29.93
2022-12-08T09:45:05.727Z,31.37
2022-12-08T09:47:38.572Z,30.93
2022-12-08T09:50:13.466Z,32.57
2022-12-08T09:52:47.010Z,30.07
2022-12-08T09:55:22.201Z,33.50
2022-12-08T09:57:59.020Z,35.27
2022-12-08T10:00:27.706Z,36.13
2022-12-08T10:02:57.470Z,37.60
2022-12-08T10:05:27.878Z,50.80
2022-12-08T10:08:04.866Z,53.97
2022-12-08T10:10:40.399Z,41.20
2022-12-08T10:13:18.187Z,46.97
2022-12-08T10:15:52.641Z,43.47
2022-12-08T10:18:25.283Z,52.50
2022-12-08T10:20:53.916Z,45.83
2022-12-08T10:23:32.608Z,48.70
2022-12-08T10:26:03.451Z,42.83
2022-12-08T10:28:33.188Z,45.40
2022-12-08T10:31:01.622Z,38.77
2022-12-08T10:33:32.546Z,39.05
2022-12-08T10:36:03.144Z,42.90
2022-12-08T10:38:34.840Z,38.27
2022-12-08T10:41:07.670Z,33.23
2022-12-08T10:43:39.391Z,26.97
2022-12-08T10:46:13.720Z,25.00
2022-12-08T10:48:53.433Z,25.07
2022-12-08T10:51:28.961Z,25.57
2022-12-08T10:53:59.265Z,26.83
2022-12-08T10:56:29.758Z,23.80
2022-12-08T10:59:17.824Z,22.97
2022-12-08T11:01:49.442Z,23.17
2022-12-08T11:04:20.478Z,25.93
2022-12-08T11:06:50.522Z,28.57
2022-12-08T11:09:37.283Z,23.47
2022-12-08T11:12:10.623Z,17.53
2022-12-08T11:14:50.455Z,21.87
2022-12-08T11:17:26.731Z,15.93
2022-12-08T11:20:01.557Z,20.33
2022-12-08T11:22:33.663Z,14.90
2022-12-08T11:25:11.523Z,16.20
2022-12-08T11:27:43.474Z,18.33
2022-12-08T11:30:17.124Z,14.97
2022-12-08T11:32:48.025Z,20.50
2022-12-08T11:35:22.419Z,19.50
2022-12-08T11:37:50.579Z,18.43
2022-12-08T11:40:24.551Z,15.80
2022-12-08T11:43:01.901Z,19.03
2022-12-08T11:45:35.024Z,20.30
2022-12-08T11:48:12.173Z,19.20
2022-12-08T11:50:45.169Z,21.80
2022-12-08T11:53:24.344Z,20.20
2022-12-08T11:55:58.501Z,19.57
2022-12-08T11:58:33.165Z,22.20
2022-12-08T12:01:02.349Z,17.73
2022-12-08T12:03:36.156Z,14.37
2022-12-08T12:06:46.379Z,16.90
2022-12-08T12:09:18.229Z,19.47
2022-12-08T12:12:16.592Z,18.00
2022-12-08T12:15:27.507Z,21.30
2022-12-08T12:18:00.736Z,22.53
2022-12-08T12:20:31.888Z,18.00
2022-12-08T12:23:06.519Z,14.97
2022-12-08T12:25:37.164Z,17.03
2022-12-08T12:28:09.488Z,15.53
2022-12-08T12:30:55.229Z,15.57
2022-12-08T12:33:24.563Z,18.50
2022-12-08T12:35:56.923Z,19.10
2022-12-08T12:38:48.848Z,15.40
2022-12-08T12:41:25.510Z,17.33
2022-12-08T12:44:37.319Z,15.20
2022-12-08T12:47:11.449Z,16.70
2022-12-08T12:50:08.228Z,14.00
2022-12-08T12:52:39.052Z,14.07
2022-12-08T12:55:50.126Z,19.83
2022-12-08T12:58:42.407Z,17.87
2022-12-08T13:01:53.427Z,14.73
2022-12-08T13:04:31.940Z,19.40
2022-12-08T13:07:00.892Z,13.20
2022-12-08T13:09:33.927Z,18.97
2022-12-08T13:12:10.810Z,18.80
2022-12-08T13:14:46.675Z,16.23
2022-12-08T13:17:23.602Z,15.00
2022-12-08T13:19:57.160Z,23.80
2022-12-08T13:23:04.920Z,15.33
2022-12-08T13:26:13.901Z,18.07
2022-12-08T13:29:15.106Z,16.60
2022-12-08T13:31:50.106Z,17.13
2022-12-08T13:34:24.200Z,20.93
2022-12-08T13:37:03.440Z,14.43
2022-12-08T13:39:42.255Z,22.07
2022-12-08T13:42:20.823Z,15.47
2022-12-08T13:48:20.458Z,19.77
2022-12-08T13:52:32.780Z,18.83
2022-12-08T13:59:29.931Z,21.13
2022-12-08T14:02:02.910Z,25.43
2022-12-08T14:04:47.806Z,18.90
2022-12-08T14:07:19.658Z,27.87
2022-12-08T14:09:49.740Z,26.17
2022-12-08T14:12:21.676Z,21.90
2022-12-08T14:15:07.525Z,26.40
2022-12-08T14:17:35.822Z,24.63
2022-12-08T14:20:07.476Z,18.52
2022-12-08T14:22:37.077Z,20.33
2022-12-08T14:25:09.201Z,17.90
2022-12-08T14:27:38.881Z,18.88
2022-12-08T14:30:16.819Z,20.80
2022-12-08T14:32:48.727Z,19.20
2022-12-08T14:35:25.254Z,19.75
2022-12-08T14:37:56.624Z,26.77
2022-12-08T14:40:31.695Z,22.33
2022-12-08T14:43:18.575Z,25.02
2022-12-08T14:45:49.182Z,23.05
2022-12-08T14:48:25.457Z,22.50
2022-12-08T14:51:07.286Z,22.42
2022-12-08T14:53:41.177Z,25.00
2022-12-08T14:56:20.604Z,19.45
2022-12-08T14:58:51.126Z,30.77
2022-12-08T15:01:24.400Z,23.52
2022-12-08T15:03:54.702Z,23.27
2022-12-08T15:06:23.539Z,21.98
2022-12-08T15:08:54.241Z,26.75
2022-12-08T15:11:36.036Z,26.30
2022-12-08T15:14:04.853Z,22.45
2022-12-08T15:16:40.494Z,26.83
2022-12-08T15:19:23.396Z,28.10
2022-12-08T15:21:52.380Z,29.70
2022-12-08T15:24:22.620Z,24.35
2022-12-08T15:26:53.490Z,27.83
2022-12-08T15:29:23.892Z,24.67
2022-12-08T15:31:53.737Z,27.30
2022-12-08T15:34:22.343Z,25.73
2022-12-08T15:36:51.785Z,25.23
2022-12-08T15:39:26.956Z,30.27
2022-12-08T15:41:56.559Z,24.52
2022-12-08T15:44:24.688Z,30.45
2022-12-08T15:46:54.279Z,23.65
2022-12-08T15:49:25.320Z,22.05
2022-12-08T15:52:08.067Z,23.38
2022-12-08T15:54:39.322Z,29.23
2022-12-08T15:57:30.050Z,34.33
2022-12-08T16:00:50.660Z,30.85
2022-12-08T16:03:59.360Z,34.05
2022-12-08T16:07:26.860Z,36.90
2022-12-08T16:09:12.474Z,35.65
2022-12-08T16:12:08.174Z,30.65
2022-12-08T16:17:28.927Z,23.75
2022-12-08T16:19:57.541Z,22.00
2022-12-08T16:25:20.592Z,17.20
2022-12-08T16:28:00.637Z,21.88
2022-12-08T16:30:31.330Z,24.98
2022-12-08T16:32:59.619Z,26.00
2022-12-08T16:35:27.833Z,23.90
2022-12-08T16:37:56.098Z,24.02
2022-12-08T16:40:24.361Z,19.65
2022-12-08T16:42:51.606Z,18.63
2022-12-08T16:45:22.163Z,18.08
2022-12-08T16:47:53.363Z,21.85
2022-12-08T16:50:24.150Z,21.45
2022-12-08T16:52:58.120Z,25.33
2022-12-08T16:55:26.551Z,18.38
2022-12-08T16:57:55.318Z,20.63
2022-12-08T17:00:25.519Z,15.60
2022-12-08T17:02:55.966Z,16.98
2022-12-08T17:05:25.636Z,16.70
2022-12-08T17:07:54.663Z,15.57
2022-12-08T17:10:25.220Z,18.50
2022-12-08T17:12:54.378Z,20.15
2022-12-08T17:15:24.770Z,19.23
2022-12-08T17:17:54.493Z,18.15
2022-12-08T17:20:24.872Z,18.38
2022-12-08T17:22:55.380Z,15.65
2022-12-08T17:25:23.746Z,18.60
2022-12-08T17:27:52.317Z,17.45
2022-12-08T17:30:20.727Z,15.88
2022-12-08T17:32:48.985Z,17.77
2022-12-08T17:35:19.731Z,20.05
2022-12-08T17:37:48.065Z,20.38
2022-12-08T17:40:16.464Z,17.67
2022-12-08T17:42:45.732Z,15.43
2022-12-08T17:45:14.031Z,14.98
2022-12-08T17:47:42.304Z,21.45
2022-12-08T17:50:11.055Z,14.38
2022-12-08T17:52:40.704Z,18.38
2022-12-08T17:55:09.635Z,15.15
2022-12-08T17:57:37.909Z,16.00
2022-12-08T18:00:07.840Z,13.93
2022-12-08T18:02:40.292Z,11.93
2022-12-08T18:05:09.334Z,11.80
2022-12-08T18:07:37.522Z,11.30
2022-12-08T18:10:08.471Z,14.25
2022-12-08T18:12:36.907Z,15.80
2022-12-08T18:15:08.951Z,15.45
2022-12-08T18:17:37.225Z,15.30
2022-12-08T18:20:06.634Z,13.05
2022-12-08T18:22:35.115Z,13.35
2022-12-08T18:25:03.286Z,18.80
2022-12-08T18:27:32.823Z,13.45
2022-12-08T18:30:02.105Z,17.55
2022-12-08T18:32:30.581Z,12.30
2022-12-08T18:34:58.914Z,13.80
2022-12-08T18:37:27.493Z,15.48
2022-12-08T18:39:56.027Z,18.15
2022-12-08T18:42:24.239Z,20.75
2022-12-08T18:44:56.256Z,20.83
2022-12-08T18:47:24.581Z,22.77
2022-12-08T18:49:52.883Z,13.25
2022-12-08T18:52:28.252Z,15.45
2022-12-08T18:55:07.485Z,14.50
2022-12-08T18:57:37.780Z,18.30
2022-12-08T19:00:11.147Z,16.90
2022-12-08T19:02:40.127Z,16.38
2022-12-08T19:05:09.630Z,18.75
2022-12-08T19:07:38.142Z,18.77
2022-12-08T19:10:07.907Z,17.27
2022-12-08T19:12:36.251Z,18.52
2022-12-08T19:15:05.123Z,17.48
2022-12-08T19:17:35.179Z,21.80
2022-12-08T19:20:04.448Z,17.70
2022-12-08T19:22:32.929Z,22.60
2022-12-08T19:25:01.179Z,25.80
2022-12-08T19:27:29.420Z,18.15
2022-12-08T19:29:58.040Z,17.45
2022-12-08T19:32:26.199Z,22.35
2022-12-08T19:34:55.735Z,21.30
2022-12-08T19:37:23.963Z,19.48
2022-12-08T19:40:09.993Z,20.70
2022-12-08T19:43:06.935Z,23.33
2022-12-08T19:45:37.328Z,23.88
2022-12-08T19:48:06.297Z,20.75
2022-12-08T19:50:40.359Z,20.58
2022-12-08T19:53:11.467Z,14.93
2022-12-08T19:55:40.041Z,19.17
2022-12-08T19:58:08.971Z,18.42
2022-12-08T20:00:38.685Z,18.80
2022-12-08T20:03:07.562Z,15.50
2022-12-08T20:05:38.234Z,21.65
2022-12-08T20:08:07.495Z,24.25
2022-12-08T20:10:38.440Z,19.27
2022-12-08T20:13:24.754Z,23.23
2022-12-08T20:15:53.513Z,31.15
2022-12-08T20:18:22.132Z,33.70
2022-12-08T20:20:51.764Z,31.55
2022-12-08T20:23:20.092Z,27.50
2022-12-08T20:25:48.662Z,23.50
2022-12-08T20:28:18.960Z,28.55
2022-12-08T20:30:49.074Z,29.17
2022-12-08T20:33:17.867Z,23.85
2022-12-08T20:35:46.784Z,22.08
2022-12-08T20:38:16.483Z,16.75
2022-12-08T20:40:47.082Z,19.00
2022-12-08T20:43:15.326Z,16.90
2022-12-08T20:45:43.610Z,14.55
2022-12-08T20:48:12.200Z,15.95
2022-12-08T20:50:40.705Z,15.77
2022-12-08T20:53:09.232Z,18.23
2022-12-08T20:55:42.063Z,16.50
2022-12-08T20:58:10.544Z,18.45
2022-12-08T21:00:39.125Z,20.00
2022-12-08T21:03:07.622Z,15.32
2022-12-08T21:05:38.848Z,17.25
2022-12-08T21:08:07.669Z,18.25
2022-12-08T21:10:39.349Z,14.57
2022-12-08T21:13:13.660Z,16.33
2022-12-08T21:15:46.682Z,15.88
2022-12-08T21:18:15.066Z,16.40
2022-12-08T21:20:43.737Z,19.33
2022-12-08T21:23:12.664Z,16.20
2022-12-08T21:25:42.376Z,16.88
2022-12-08T21:28:13.595Z,14.70
2022-12-08T21:30:42.475Z,17.73
2022-12-08T21:33:11.252Z,16.10
2022-12-08T21:35:39.753Z,22.38
2022-12-08T21:38:09.322Z,18.52
2022-12-08T21:40:38.153Z,17.67
2022-12-08T21:43:06.632Z,16.25
2022-12-08T21:45:36.480Z,19.30
2022-12-08T21:48:10.805Z,20.23
2022-12-08T21:50:39.811Z,18.45
2022-12-08T21:53:08.074Z,15.80
2022-12-08T21:55:36.313Z,18.02
2022-12-08T21:58:04.486Z,14.70
2022-12-08T22:00:32.863Z,17.80
2022-12-08T22:03:02.849Z,19.63
2022-12-08T22:05:31.273Z,19.58
2022-12-08T22:07:59.774Z,15.38
2022-12-08T22:10:28.107Z,19.08
2022-12-08T22:12:56.852Z,21.33
2022-12-08T22:15:26.164Z,16.10
2022-12-08T22:17:54.453Z,13.30
2022-12-08T22:20:24.751Z,16.40
2022-12-08T22:22:53.065Z,12.52
2022-12-08T22:25:21.453Z,16.40
2022-12-08T22:27:49.761Z,15.35
2022-12-08T22:30:18.024Z,13.13
2022-12-08T22:32:46.693Z,16.00
2022-12-08T22:35:14.992Z,14.18
2022-12-08T22:37:44.550Z,15.15
2022-12-08T22:40:13.299Z,16.65
2022-12-08T22:42:41.642Z,17.83
2022-12-08T22:45:10.596Z,17.75
2022-12-08T22:47:38.927Z,23.98
2022-12-08T22:50:08.478Z,13.10
2022-12-08T22:52:37.366Z,15.15
2022-12-08T22:55:08.284Z,13.85
2022-12-08T22:57:36.565Z,15.93
2022-12-08T23:00:06.127Z,16.48
2022-12-08T23:02:34.810Z,15.82
2022-12-08T23:05:03.005Z,14.80
2022-12-08T23:07:31.700Z,13.30
2022-12-08T23:09:59.939Z,14.10
2022-12-08T23:12:29.679Z,15.27
2022-12-08T23:14:58.864Z,18.98
2022-12-08T23:17:27.241Z,18.20
2022-12-08T23:19:55.779Z,16.92
2022-12-08T23:22:24.164Z,15.15
2022-12-08T23:24:52.370Z,14.27
2022-12-08T23:27:20.704Z,14.15
2022-12-08T23:29:50.431Z,13.63
2022-12-08T23:32:18.668Z,13.48
2022-12-08T23:34:47.577Z,15.40
2022-12-08T23:37:15.885Z,16.67
2022-12-08T23:39:44.276Z,17.27
2022-12-08T23:42:12.839Z,17.60
2022-12-08T23:44:41.479Z,15.18
2022-12-08T23:47:11.101Z,16.27
2022-12-08T23:49:39.499Z,16.23
2022-12-08T23:52:07.868Z,13.73
2022-12-08T23:54:36.251Z,15.23
2022-12-08T23:57:05.323Z,13.77
2022-12-08T23:59:33.933Z,14.20
